createdAt,value
2019-03-20T00:00:06.318Z,12.93
2019-03-20T00:02:37.749Z,12.50
2019-03-20T00:05:07.141Z,13.03
2019-03-20T00:07:36.634Z,11.93
2019-03-20T00:10:06.337Z,11.03
2019-03-20T00:12:34.649Z,10.83
2019-03-20T00:15:04.048Z,10.93
2019-03-20T00:17:32.454Z,11.07
2019-03-20T00:20:00.994Z,12.67
2019-03-20T00:22:29.262Z,10.70
2019-03-20T00:24:57.562Z,12.40
2019-03-20T00:27:25.949Z,13.27
2019-03-20T00:29:54.369Z,10.97
2019-03-20T00:32:22.922Z,11.87
2019-03-20T00:35:00.588Z,12.10
2019-03-20T00:37:21.264Z,12.03
2019-03-20T00:39:49.569Z,13.17
2019-03-20T00:42:17.869Z,10.30
2019-03-20T00:44:46.208Z,12.93
2019-03-20T00:47:14.569Z,12.10
2019-03-20T00:49:42.940Z,11.10
2019-03-20T00:52:11.150Z,13.53
2019-03-20T00:54:39.503Z,13.20
2019-03-20T00:57:07.954Z,13.17
2019-03-20T00:59:36.309Z,11.87
2019-03-20T01:02:04.761Z,12.70
2019-03-20T01:04:33.080Z,13.37
2019-03-20T01:07:01.371Z,11.70
2019-03-20T01:09:29.774Z,11.37
2019-03-20T01:11:58.269Z,14.13
2019-03-20T01:14:26.603Z,13.63
2019-03-20T01:16:54.882Z,12.20
2019-03-20T01:19:23.454Z,15.27
2019-03-20T01:21:51.976Z,15.43
2019-03-20T01:24:20.329Z,14.80
2019-03-20T01:26:48.649Z,13.90
2019-03-20T01:29:16.985Z,16.50
2019-03-20T01:31:45.321Z,12.97
2019-03-20T01:34:13.757Z,14.57
2019-03-20T01:36:42.061Z,13.70
2019-03-20T01:39:10.449Z,13.30
2019-03-20T01:41:38.874Z,10.83
2019-03-20T01:44:07.261Z,14.67
2019-03-20T01:46:35.687Z,14.17
2019-03-20T01:49:05.368Z,15.20
2019-03-20T01:51:33.661Z,14.73
2019-03-20T01:54:02.001Z,11.13
2019-03-20T01:56:31.544Z,14.17
2019-03-20T01:58:59.848Z,14.40
2019-03-20T02:01:28.009Z,15.77
2019-03-20T02:03:56.335Z,14.13
2019-03-20T02:06:24.648Z,15.73
2019-03-20T02:08:53.138Z,14.07
2019-03-20T02:11:21.528Z,15.33
2019-03-20T02:13:49.867Z,14.60
2019-03-20T02:16:18.319Z,15.73
2019-03-20T02:18:46.626Z,13.67
2019-03-20T02:21:15.018Z,15.90
2019-03-20T02:23:43.389Z,17.60
2019-03-20T02:26:11.764Z,14.17
2019-03-20T02:28:40.044Z,14.17
2019-03-20T02:31:10.843Z,15.87
2019-03-20T02:33:39.173Z,15.00
2019-03-20T02:36:07.548Z,15.20
2019-03-20T02:38:35.881Z,15.03
2019-03-20T02:41:04.260Z,14.53
2019-03-20T02:43:32.597Z,14.80
2019-03-20T02:46:01.052Z,14.47
2019-03-20T02:48:29.422Z,14.97
2019-03-20T02:50:57.722Z,14.33
2019-03-20T02:53:26.088Z,16.20
2019-03-20T02:55:54.301Z,14.03
2019-03-20T02:58:22.757Z,14.43
2019-03-20T03:00:50.996Z,12.73
2019-03-20T03:03:19.197Z,15.23
2019-03-20T03:05:48.326Z,16.63
2019-03-20T03:08:16.731Z,17.87
2019-03-20T03:10:45.181Z,13.57
2019-03-20T03:13:13.651Z,12.53
2019-03-20T03:15:41.910Z,14.67
2019-03-20T03:18:10.232Z,14.40
2019-03-20T03:20:39.601Z,18.97
2019-03-20T03:23:08.020Z,16.43
2019-03-20T03:25:36.277Z,16.33
2019-03-20T03:28:04.746Z,17.17
2019-03-20T03:30:33.037Z,15.20
2019-03-20T03:33:01.342Z,16.83
2019-03-20T03:35:29.670Z,15.47
2019-03-20T03:37:58.177Z,14.10
2019-03-20T03:40:26.628Z,11.37
2019-03-20T03:42:55.021Z,11.03
2019-03-20T03:45:23.439Z,15.17
2019-03-20T03:47:51.711Z,13.50
2019-03-20T03:50:20.042Z,15.33
2019-03-20T03:52:48.342Z,15.13
2019-03-20T03:55:16.717Z,16.90
2019-03-20T03:57:44.999Z,16.17
2019-03-20T04:00:14.825Z,15.60
2019-03-20T04:02:43.086Z,17.13
2019-03-20T04:05:12.531Z,15.50
2019-03-20T04:07:40.980Z,14.70
2019-03-20T04:10:10.949Z,15.37
2019-03-20T04:12:39.190Z,18.17
2019-03-20T04:15:09.349Z,14.33
2019-03-20T04:17:37.757Z,13.20
2019-03-20T04:20:07.539Z,15.63
2019-03-20T04:22:35.739Z,18.87
2019-03-20T04:25:05.411Z,16.90
2019-03-20T04:27:33.675Z,14.17
2019-03-20T04:30:02.209Z,15.33
2019-03-20T04:32:30.739Z,17.57
2019-03-20T04:34:59.120Z,16.97
2019-03-20T04:37:27.430Z,15.63
2019-03-20T04:39:55.829Z,17.73
2019-03-20T04:42:24.210Z,16.80
2019-03-20T04:44:52.597Z,15.07
2019-03-20T04:47:21.042Z,16.17
2019-03-20T04:49:50.442Z,15.67
2019-03-20T04:52:18.762Z,19.20
2019-03-20T04:54:47.066Z,15.33
2019-03-20T04:57:15.357Z,16.57
2019-03-20T04:59:43.694Z,14.00
2019-03-20T05:02:11.969Z,16.40
2019-03-20T05:04:40.303Z,17.67
2019-03-20T05:07:08.669Z,18.53
2019-03-20T05:09:37.217Z,13.50
2019-03-20T05:12:05.542Z,18.90
2019-03-20T05:14:33.910Z,17.73
2019-03-20T05:17:02.201Z,20.67
2019-03-20T05:19:30.617Z,17.67
2019-03-20T05:21:59.119Z,16.43
2019-03-20T05:24:27.322Z,19.17
2019-03-20T05:26:55.650Z,18.83
2019-03-20T05:29:23.964Z,14.97
2019-03-20T05:31:53.325Z,16.37
2019-03-20T05:37:37.469Z,17.80
2019-03-20T05:40:07.412Z,17.83
2019-03-20T05:42:35.894Z,17.47
2019-03-20T05:45:05.708Z,16.33
2019-03-20T05:47:34.126Z,19.83
2019-03-20T05:50:02.501Z,19.17
2019-03-20T05:52:30.846Z,18.23
2019-03-20T05:54:59.142Z,14.50
2019-03-20T05:57:27.667Z,16.67
2019-03-20T05:59:55.949Z,15.33
2019-03-20T06:02:25.833Z,17.67
2019-03-20T06:04:55.509Z,15.07
2019-03-20T06:07:23.822Z,18.07
2019-03-20T06:09:52.202Z,20.10
2019-03-20T06:12:20.517Z,15.30
2019-03-20T06:14:49.138Z,18.93
2019-03-20T06:17:17.459Z,18.90
2019-03-20T06:19:45.687Z,19.23
2019-03-20T06:22:15.307Z,15.90
2019-03-20T06:24:43.683Z,15.33
2019-03-20T06:27:12.121Z,19.40
2019-03-20T06:29:40.597Z,18.30
2019-03-20T06:32:08.843Z,20.03
2019-03-20T06:34:37.188Z,19.13
2019-03-20T06:37:05.510Z,16.97
2019-03-20T06:39:33.957Z,17.70
2019-03-20T06:42:02.243Z,16.47
2019-03-20T06:44:30.610Z,17.77
2019-03-20T06:46:58.962Z,16.77
2019-03-20T06:49:27.262Z,16.53
2019-03-20T06:51:55.534Z,17.37
2019-03-20T06:54:23.841Z,15.03
2019-03-20T06:56:52.197Z,16.57
2019-03-20T06:59:21.981Z,17.23
2019-03-20T07:01:50.233Z,18.20
2019-03-20T07:04:20.488Z,15.90
2019-03-20T07:06:50.253Z,15.53
2019-03-20T07:09:18.390Z,14.50
2019-03-20T07:11:47.091Z,15.87
2019-03-20T07:14:15.489Z,16.70
2019-03-20T07:16:43.809Z,14.70
2019-03-20T07:19:12.237Z,14.07
2019-03-20T07:21:40.609Z,11.90
2019-03-20T07:24:08.922Z,14.23
2019-03-20T07:26:37.355Z,14.70
2019-03-20T07:29:05.881Z,14.43
2019-03-20T07:31:34.129Z,12.97
2019-03-20T07:34:02.341Z,8.67
2019-03-20T07:36:31.765Z,14.03
2019-03-20T07:39:00.274Z,13.27
2019-03-20T07:41:28.531Z,12.10
2019-03-20T07:44:00.964Z,12.87
2019-03-20T07:46:29.241Z,14.80
2019-03-20T07:48:57.792Z,12.63
2019-03-20T07:51:26.209Z,13.73
2019-03-20T07:53:54.583Z,15.67
2019-03-20T07:56:22.882Z,12.53
2019-03-20T07:58:52.616Z,14.33
2019-03-20T08:01:20.993Z,14.00
2019-03-20T08:03:49.396Z,13.13
2019-03-20T08:06:17.906Z,13.77
2019-03-20T08:08:46.129Z,12.83
2019-03-20T08:11:14.657Z,12.20
2019-03-20T08:13:43.027Z,13.23
2019-03-20T08:16:11.297Z,12.07
2019-03-20T08:18:39.671Z,12.57
2019-03-20T08:21:07.966Z,13.37
2019-03-20T08:23:36.429Z,11.07
2019-03-20T08:26:04.704Z,11.97
2019-03-20T08:28:33.096Z,9.50
2019-03-20T08:31:01.397Z,10.97
2019-03-20T08:33:29.870Z,9.47
2019-03-20T08:35:58.437Z,11.70
2019-03-20T08:38:26.817Z,8.87
2019-03-20T08:40:55.113Z,8.63
2019-03-20T08:43:23.451Z,9.40
2019-03-20T08:45:51.762Z,8.17
2019-03-20T08:48:20.159Z,6.20
2019-03-20T08:50:48.649Z,7.43
2019-03-20T08:53:18.141Z,6.73
2019-03-20T08:55:46.697Z,7.43
2019-03-20T08:58:15.074Z,7.03
2019-03-20T09:00:43.292Z,11.93
2019-03-20T09:03:14.196Z,9.03
2019-03-20T09:05:43.238Z,6.47
2019-03-20T09:08:11.502Z,6.57
2019-03-20T09:10:39.842Z,5.37
2019-03-20T09:13:08.181Z,5.97
2019-03-20T09:15:36.709Z,5.80
2019-03-20T09:18:05.640Z,4.90
2019-03-20T09:20:33.971Z,5.00
2019-03-20T09:23:02.393Z,5.93
2019-03-20T09:25:30.637Z,3.43
2019-03-20T09:27:59.034Z,3.70
2019-03-20T09:30:27.961Z,5.30
2019-03-20T09:32:56.621Z,3.87
2019-03-20T09:35:25.301Z,4.93
2019-03-20T09:37:53.607Z,4.53
2019-03-20T09:40:25.402Z,3.60
2019-03-20T09:42:53.785Z,4.37
2019-03-20T09:45:22.367Z,5.13
2019-03-20T09:47:50.693Z,3.10
2019-03-20T09:50:20.529Z,3.60
2019-03-20T09:52:50.053Z,3.93
2019-03-20T09:55:18.744Z,6.07
2019-03-20T09:57:47.225Z,5.60
2019-03-20T10:00:17.120Z,7.10
2019-03-20T10:02:45.541Z,5.17
2019-03-20T10:05:14.041Z,5.10
2019-03-20T10:07:42.614Z,5.27
2019-03-20T10:10:12.440Z,5.83
2019-03-20T10:12:40.991Z,6.67
2019-03-20T10:15:10.773Z,6.53
2019-03-20T10:17:39.209Z,6.43
2019-03-20T10:20:09.158Z,6.10
2019-03-20T10:22:39.000Z,6.73
2019-03-20T10:25:09.362Z,5.00
2019-03-20T10:27:37.781Z,5.63
2019-03-20T10:30:07.758Z,4.20
2019-03-20T10:32:36.200Z,6.50
2019-03-20T10:35:06.121Z,5.50
2019-03-20T10:37:34.495Z,4.67
2019-03-20T10:40:03.005Z,4.97
2019-03-20T10:42:31.328Z,4.93
2019-03-20T10:44:59.720Z,4.13
2019-03-20T10:47:28.120Z,5.53
2019-03-20T10:49:56.649Z,4.23
2019-03-20T10:52:25.081Z,4.60
2019-03-20T10:54:53.387Z,5.00
2019-03-20T10:57:21.829Z,5.37
2019-03-20T10:59:50.194Z,4.43
2019-03-20T11:02:18.594Z,6.67
2019-03-20T11:04:47.221Z,5.53
2019-03-20T11:07:15.495Z,5.03
2019-03-20T11:09:43.882Z,3.63
2019-03-20T11:12:12.358Z,4.37
2019-03-20T11:14:40.659Z,6.57
2019-03-20T11:17:10.225Z,5.70
2019-03-20T11:19:38.424Z,4.17
2019-03-20T11:22:18.040Z,5.93
2019-03-20T11:24:36.781Z,4.97
2019-03-20T11:27:05.289Z,4.00
2019-03-20T11:29:33.786Z,4.83
2019-03-20T11:32:02.123Z,4.30
2019-03-20T11:34:31.561Z,3.90
2019-03-20T11:37:00.054Z,4.40
2019-03-20T11:39:29.837Z,4.73
2019-03-20T11:41:58.472Z,3.33
2019-03-20T11:44:28.151Z,4.07
2019-03-20T11:46:56.409Z,4.87
2019-03-20T11:49:24.819Z,4.40
2019-03-20T11:51:54.717Z,5.33
2019-03-20T11:54:23.070Z,5.47
2019-03-20T11:56:52.787Z,5.70
2019-03-20T11:59:21.182Z,4.93
2019-03-20T12:01:49.638Z,6.80
2019-03-20T12:04:19.049Z,6.07
2019-03-20T12:06:48.704Z,5.60
2019-03-20T12:09:17.157Z,7.10
2019-03-20T12:11:46.328Z,5.20
2019-03-20T12:14:14.959Z,5.47
2019-03-20T12:16:43.318Z,5.13
2019-03-20T12:19:11.616Z,5.97
2019-03-20T12:21:40.016Z,6.17
2019-03-20T12:24:08.388Z,6.87
2019-03-20T12:26:36.695Z,6.00
2019-03-20T12:29:05.072Z,5.77
2019-03-20T12:31:33.403Z,6.63
2019-03-20T12:34:02.312Z,7.47
2019-03-20T12:36:30.968Z,6.47
2019-03-20T12:38:59.558Z,6.50
2019-03-20T12:41:31.112Z,6.70
2019-03-20T12:43:59.489Z,5.87
2019-03-20T12:46:40.942Z,6.20
2019-03-20T12:48:59.736Z,5.27
2019-03-20T12:51:28.218Z,6.00
2019-03-20T12:53:56.584Z,5.07
2019-03-20T12:56:24.973Z,5.33
2019-03-20T12:58:53.492Z,4.63
2019-03-20T13:01:21.957Z,6.00
2019-03-20T13:03:50.413Z,4.70
2019-03-20T13:06:18.862Z,6.27
2019-03-20T13:08:47.114Z,5.27
2019-03-20T13:11:15.657Z,5.63
2019-03-20T13:13:45.039Z,5.33
2019-03-20T13:16:14.519Z,6.50
2019-03-20T13:18:42.901Z,6.13
2019-03-20T13:21:11.439Z,6.67
2019-03-20T13:23:39.902Z,5.97
2019-03-20T13:26:08.294Z,6.17
2019-03-20T13:28:36.689Z,7.27
2019-03-20T13:31:06.452Z,5.50
2019-03-20T13:33:34.977Z,6.53
2019-03-20T13:36:03.381Z,6.30
2019-03-20T13:38:31.696Z,4.87
2019-03-20T13:41:00.049Z,6.53
2019-03-20T13:43:29.451Z,5.93
2019-03-20T13:45:57.737Z,5.83
2019-03-20T13:50:57.868Z,7.60
2019-03-20T13:53:26.457Z,5.37
2019-03-20T13:55:54.685Z,6.70
2019-03-20T13:58:23.082Z,6.57
2019-03-20T14:00:51.534Z,6.57
2019-03-20T14:03:19.895Z,6.17
2019-03-20T14:05:48.229Z,5.50
2019-03-20T14:08:17.686Z,5.70
2019-03-20T14:10:50.232Z,5.43
2019-03-20T14:13:16.209Z,6.03
2019-03-20T14:15:44.672Z,5.40
2019-03-20T14:18:13.084Z,5.87
2019-03-20T14:20:41.402Z,7.70
2019-03-20T14:23:12.452Z,6.67
2019-03-20T14:25:41.011Z,6.07
2019-03-20T14:28:09.370Z,7.20
2019-03-20T14:30:37.722Z,5.23
2019-03-20T14:33:07.049Z,5.97
2019-03-20T14:35:35.411Z,6.70
2019-03-20T14:38:03.818Z,5.77
2019-03-20T14:40:36.730Z,5.33
2019-03-20T14:43:05.117Z,6.50
2019-03-20T14:45:33.581Z,5.37
2019-03-20T14:48:01.803Z,5.53
2019-03-20T14:50:32.649Z,6.13
2019-03-20T14:53:01.126Z,5.77
2019-03-20T14:55:29.538Z,4.83
2019-03-20T14:57:58.043Z,4.77
2019-03-20T15:00:26.876Z,4.77
2019-03-20T15:02:55.441Z,5.30
2019-03-20T15:05:23.961Z,5.33
2019-03-20T15:07:52.532Z,5.20
2019-03-20T15:10:21.474Z,5.77
2019-03-20T15:12:50.049Z,5.70
2019-03-20T15:15:20.123Z,6.53
2019-03-20T15:17:48.327Z,6.33
2019-03-20T15:20:16.670Z,7.40
2019-03-20T15:22:44.939Z,6.03
2019-03-20T15:25:13.177Z,5.50
2019-03-20T15:27:41.528Z,5.67
2019-03-20T15:30:11.456Z,5.97
2019-03-20T15:32:39.776Z,5.30
2019-03-20T15:35:08.461Z,7.10
2019-03-20T15:37:36.809Z,5.53
2019-03-20T15:40:06.716Z,6.70
2019-03-20T15:42:35.277Z,6.27
2019-03-20T15:45:07.649Z,5.30
2019-03-20T15:47:35.975Z,6.17
2019-03-20T15:50:06.009Z,5.73
2019-03-20T15:52:34.425Z,5.27
2019-03-20T15:55:02.918Z,4.83
2019-03-20T15:57:31.366Z,6.40
2019-03-20T15:59:59.726Z,6.30
2019-03-20T16:02:28.053Z,5.07
2019-03-20T16:04:56.370Z,5.53
2019-03-20T16:07:24.766Z,5.97
2019-03-20T16:09:52.962Z,5.87
2019-03-20T16:12:21.303Z,5.53
2019-03-20T16:14:49.857Z,7.33
2019-03-20T16:17:18.209Z,5.87
2019-03-20T16:19:46.699Z,5.57
2019-03-20T16:22:15.211Z,5.57
2019-03-20T16:24:43.678Z,5.53
2019-03-20T16:27:12.044Z,5.73
2019-03-20T16:29:40.394Z,6.47
2019-03-20T16:32:08.829Z,6.07
2019-03-20T16:34:37.179Z,5.37
2019-03-20T16:37:05.570Z,5.83
2019-03-20T16:39:33.845Z,6.00
2019-03-20T16:42:02.209Z,5.63
2019-03-20T16:44:30.587Z,5.93
2019-03-20T16:46:58.919Z,5.87
2019-03-20T16:49:27.460Z,6.93
2019-03-20T16:51:55.929Z,5.83
2019-03-20T16:54:24.342Z,6.33
2019-03-20T16:56:52.791Z,6.90
2019-03-20T16:59:21.087Z,7.43
2019-03-20T17:01:49.555Z,7.23
2019-03-20T17:04:17.798Z,6.50
2019-03-20T17:06:46.253Z,7.60
2019-03-20T17:09:14.697Z,6.40
2019-03-20T17:11:42.977Z,6.27
2019-03-20T17:14:11.578Z,5.73
2019-03-20T17:16:42.843Z,4.47
2019-03-20T17:19:09.882Z,4.40
2019-03-20T17:21:38.331Z,4.30
2019-03-20T17:24:06.528Z,10.07
2019-03-20T17:26:34.783Z,6.90
2019-03-20T17:29:08.999Z,12.33
2019-03-20T17:31:33.174Z,11.93
2019-03-20T17:34:02.424Z,11.90
2019-03-20T17:36:30.784Z,11.07
2019-03-20T17:38:59.201Z,10.83
2019-03-20T17:41:36.429Z,10.73
2019-03-20T17:43:57.533Z,7.23
2019-03-20T17:46:25.779Z,9.90
2019-03-20T17:48:54.215Z,10.50
2019-03-20T17:51:23.938Z,10.63
2019-03-20T17:53:52.187Z,10.73
2019-03-20T17:56:20.578Z,9.70
2019-03-20T17:58:49.004Z,8.50
2019-03-20T18:01:17.347Z,9.53
2019-03-20T18:03:46.822Z,7.60
2019-03-20T18:06:15.207Z,7.40
2019-03-20T18:08:43.684Z,9.50
2019-03-20T18:11:11.969Z,7.60
2019-03-20T18:13:40.287Z,7.87
2019-03-20T18:16:08.722Z,9.70
2019-03-20T18:18:37.082Z,11.83
2019-03-20T18:21:05.483Z,14.43
2019-03-20T18:23:34.808Z,15.47
2019-03-20T18:26:03.262Z,11.47
2019-03-20T18:28:31.639Z,12.77
2019-03-20T18:30:59.962Z,13.77
2019-03-20T18:33:28.400Z,12.77
2019-03-20T18:35:56.677Z,10.37
2019-03-20T18:38:24.900Z,11.83
2019-03-20T18:40:53.198Z,12.57
2019-03-20T18:43:21.758Z,10.07
2019-03-20T18:45:52.251Z,9.77
2019-03-20T18:48:20.045Z,8.40
2019-03-20T18:50:48.301Z,9.20
2019-03-20T18:53:16.638Z,8.77
2019-03-20T18:55:44.942Z,8.23
2019-03-20T18:58:13.657Z,7.13
2019-03-20T19:00:42.209Z,8.23
2019-03-20T19:03:12.126Z,9.43
2019-03-20T19:05:42.043Z,13.13
2019-03-20T19:08:10.436Z,15.37
2019-03-20T19:10:38.921Z,12.37
2019-03-20T19:13:08.241Z,10.30
2019-03-20T19:15:36.563Z,14.40
2019-03-20T19:18:05.087Z,13.97
2019-03-20T19:20:33.672Z,16.73
2019-03-20T19:23:02.257Z,17.63
2019-03-20T19:25:30.472Z,13.23
2019-03-20T19:27:59.106Z,12.17
2019-03-20T19:30:27.451Z,12.70
2019-03-20T19:32:55.801Z,11.27
2019-03-20T19:35:24.239Z,11.13
2019-03-20T19:37:52.669Z,11.07
2019-03-20T19:40:25.005Z,9.77
2019-03-20T19:42:53.420Z,10.30
2019-03-20T19:45:22.358Z,10.53
2019-03-20T19:47:51.057Z,14.30
2019-03-20T19:50:19.977Z,10.17
2019-03-20T19:52:48.211Z,11.43
2019-03-20T19:55:17.129Z,10.67
2019-03-20T19:57:48.697Z,9.40
2019-03-20T20:00:18.899Z,8.90
2019-03-20T20:02:59.868Z,10.20
2019-03-20T20:05:38.792Z,8.77
2019-03-20T20:08:11.351Z,7.77
2019-03-20T20:10:39.804Z,7.87
2019-03-20T20:16:29.817Z,8.63
2019-03-20T20:22:14.980Z,6.27
2019-03-20T20:28:00.035Z,9.10
2019-03-20T20:30:28.488Z,9.13
2019-03-20T20:36:12.362Z,8.33
2019-03-20T20:41:56.914Z,9.77
2019-03-20T20:47:41.787Z,9.50
2019-03-20T20:53:13.923Z,12.87
2019-03-20T20:58:59.081Z,9.67
2019-03-20T21:01:30.002Z,8.03
2019-03-20T21:03:57.302Z,8.30
2019-03-20T21:06:25.617Z,9.80
2019-03-20T21:08:54.022Z,9.27
2019-03-20T21:14:38.181Z,8.40
2019-03-20T21:17:07.728Z,10.60
2019-03-20T21:19:36.369Z,9.60
2019-03-20T21:25:20.542Z,9.30
2019-03-20T21:31:07.360Z,8.33
2019-03-20T21:36:54.712Z,10.50
2019-03-20T21:39:23.646Z,8.10
2019-03-20T21:41:53.629Z,10.00
2019-03-20T21:44:25.668Z,11.90
2019-03-20T21:50:13.196Z,8.83
2019-03-20T21:55:58.443Z,7.90
2019-03-20T21:58:28.538Z,10.40
2019-03-20T22:04:13.527Z,10.50
2019-03-20T22:09:59.962Z,8.63
2019-03-20T22:15:46.442Z,9.93
2019-03-20T22:21:33.057Z,9.13
2019-03-20T22:24:02.902Z,7.70
2019-03-20T22:26:30.759Z,7.67
2019-03-20T22:32:15.890Z,8.60
2019-03-20T22:34:45.744Z,11.10
2019-03-20T22:40:31.701Z,8.70
2019-03-20T22:43:01.599Z,8.73
2019-03-20T22:45:31.560Z,7.60
2019-03-20T22:48:02.579Z,10.20
2019-03-20T22:50:32.297Z,8.27
2019-03-20T22:53:02.316Z,8.03
2019-03-20T22:58:46.577Z,7.87
2019-03-20T23:04:31.949Z,10.20
2019-03-20T23:07:00.377Z,9.70
2019-03-20T23:09:28.609Z,7.43
2019-03-20T23:11:59.342Z,10.57
2019-03-20T23:17:56.529Z,7.27
2019-03-20T23:23:41.984Z,7.73
2019-03-20T23:29:27.589Z,8.87
2019-03-20T23:31:55.966Z,8.47
2019-03-20T23:34:24.337Z,7.20
2019-03-20T23:36:52.931Z,7.73
2019-03-20T23:39:21.236Z,7.73
2019-03-20T23:44:53.881Z,7.50
2019-03-20T23:50:38.520Z,8.17
2019-03-20T23:56:23.609Z,6.73
2019-03-20T23:58:52.106Z,8.23
